sensor_id;sensor_type;location;lat;lon;timestamp;P1;durP1;ratioP1;P2;durP2;ratioP2
24787;SDS011;12883;52.662;5.196;2022-12-07T00:01:06;2.63;;;2.63;;
24787;SDS011;12883;52.662;5.196;2022-12-07T00:03:32;2.17;;;2.17;;
24787;SDS011;12883;52.662;5.196;2022-12-07T00:05:58;1.97;;;1.97;;
24787;SDS011;12883;52.662;5.196;2022-12-07T00:08:24;1.60;;;1.60;;
24787;SDS011;12883;52.662;5.196;2022-12-07T00:10:49;2.00;;;2.00;;
24787;SDS011;12883;52.662;5.196;2022-12-07T00:13:15;1.83;;;1.83;;
24787;SDS011;12883;52.662;5.196;2022-12-07T00:15:40;1.70;;;1.70;;
24787;SDS011;12883;52.662;5.196;2022-12-07T00:18:05;1.87;;;1.87;;
24787;SDS011;12883;52.662;5.196;2022-12-07T00:20:31;2.20;;;2.20;;
24787;SDS011;12883;52.662;5.196;2022-12-07T00:22:56;1.63;;;1.63;;
24787;SDS011;12883;52.662;5.196;2022-12-07T00:25:22;2.03;;;2.03;;
24787;SDS011;12883;52.662;5.196;2022-12-07T00:27:47;1.97;;;1.97;;
24787;SDS011;12883;52.662;5.196;2022-12-07T00:30:12;1.80;;;1.80;;
24787;SDS011;12883;52.662;5.196;2022-12-07T00:32:38;2.47;;;2.47;;
24787;SDS011;12883;52.662;5.196;2022-12-07T00:35:03;1.67;;;1.67;;
24787;SDS011;12883;52.662;5.196;2022-12-07T00:37:29;2.10;;;2.10;;
24787;SDS011;12883;52.662;5.196;2022-12-07T00:39:54;1.70;;;1.70;;
24787;SDS011;12883;52.662;5.196;2022-12-07T00:42:19;2.23;;;2.23;;
24787;SDS011;12883;52.662;5.196;2022-12-07T00:44:45;1.90;;;1.90;;
24787;SDS011;12883;52.662;5.196;2022-12-07T00:47:10;1.93;;;1.93;;
24787;SDS011;12883;52.662;5.196;2022-12-07T00:49:35;1.63;;;1.63;;
24787;SDS011;12883;52.662;5.196;2022-12-07T00:52:01;1.73;;;1.73;;
24787;SDS011;12883;52.662;5.196;2022-12-07T00:54:26;2.20;;;2.20;;
24787;SDS011;12883;52.662;5.196;2022-12-07T00:56:51;2.20;;;2.20;;
24787;SDS011;12883;52.662;5.196;2022-12-07T00:59:17;2.20;;;2.20;;
24787;SDS011;12883;52.662;5.196;2022-12-07T01:01:42;2.07;;;2.07;;
24787;SDS011;12883;52.662;5.196;2022-12-07T01:04:07;2.37;;;2.37;;
24787;SDS011;12883;52.662;5.196;2022-12-07T01:06:33;1.83;;;1.83;;
24787;SDS011;12883;52.662;5.196;2022-12-07T01:08:59;1.73;;;1.73;;
24787;SDS011;12883;52.662;5.196;2022-12-07T01:11:26;1.80;;;1.80;;
24787;SDS011;12883;52.662;5.196;2022-12-07T01:13:54;2.27;;;2.27;;
24787;SDS011;12883;52.662;5.196;2022-12-07T01:16:21;1.77;;;1.77;;
24787;SDS011;12883;52.662;5.196;2022-12-07T01:18:51;2.63;;;2.63;;
24787;SDS011;12883;52.662;5.196;2022-12-07T01:21:19;2.20;;;2.20;;
24787;SDS011;12883;52.662;5.196;2022-12-07T01:23:47;1.67;;;1.67;;
24787;SDS011;12883;52.662;5.196;2022-12-07T01:26:15;1.70;;;1.70;;
24787;SDS011;12883;52.662;5.196;2022-12-07T01:28:42;1.83;;;1.83;;
24787;SDS011;12883;52.662;5.196;2022-12-07T01:31:12;1.70;;;1.70;;
24787;SDS011;12883;52.662;5.196;2022-12-07T01:33:42;2.30;;;2.30;;
24787;SDS011;12883;52.662;5.196;2022-12-07T01:38:38;1.97;;;1.97;;
24787;SDS011;12883;52.662;5.196;2022-12-07T01:41:04;2.13;;;2.13;;
24787;SDS011;12883;52.662;5.196;2022-12-07T01:43:30;1.83;;;1.83;;
24787;SDS011;12883;52.662;5.196;2022-12-07T01:45:57;1.93;;;1.93;;
24787;SDS011;12883;52.662;5.196;2022-12-07T01:48:24;2.30;;;2.30;;
24787;SDS011;12883;52.662;5.196;2022-12-07T01:50:54;2.13;;;2.13;;
24787;SDS011;12883;52.662;5.196;2022-12-07T01:53:24;1.80;;;1.80;;
24787;SDS011;12883;52.662;5.196;2022-12-07T01:55:53;2.20;;;2.20;;
24787;SDS011;12883;52.662;5.196;2022-12-07T01:58:21;1.97;;;1.97;;
24787;SDS011;12883;52.662;5.196;2022-12-07T02:00:47;2.27;;;2.27;;
24787;SDS011;12883;52.662;5.196;2022-12-07T02:03:15;2.43;;;2.43;;
24787;SDS011;12883;52.662;5.196;2022-12-07T02:05:45;2.23;;;2.23;;
24787;SDS011;12883;52.662;5.196;2022-12-07T02:08:13;2.20;;;2.20;;
24787;SDS011;12883;52.662;5.196;2022-12-07T02:10:39;1.93;;;1.90;;
24787;SDS011;12883;52.662;5.196;2022-12-07T02:13:06;2.20;;;2.20;;
24787;SDS011;12883;52.662;5.196;2022-12-07T02:18:35;1.73;;;1.73;;
24787;SDS011;12883;52.662;5.196;2022-12-07T02:21:11;1.90;;;1.90;;
24787;SDS011;12883;52.662;5.196;2022-12-07T02:23:40;1.90;;;1.90;;
24787;SDS011;12883;52.662;5.196;2022-12-07T02:26:38;1.90;;;1.90;;
24787;SDS011;12883;52.662;5.196;2022-12-07T02:34:34;2.23;;;2.23;;
24787;SDS011;12883;52.662;5.196;2022-12-07T02:37:21;2.23;;;2.23;;
24787;SDS011;12883;52.662;5.196;2022-12-07T02:39:59;1.50;;;1.50;;
24787;SDS011;12883;52.662;5.196;2022-12-07T02:42:31;1.37;;;1.37;;
24787;SDS011;12883;52.662;5.196;2022-12-07T02:45:02;1.30;;;1.30;;
24787;SDS011;12883;52.662;5.196;2022-12-07T02:47:29;2.03;;;2.03;;
24787;SDS011;12883;52.662;5.196;2022-12-07T02:49:58;2.50;;;2.50;;
24787;SDS011;12883;52.662;5.196;2022-12-07T02:52:23;2.37;;;2.37;;
24787;SDS011;12883;52.662;5.196;2022-12-07T02:54:49;1.80;;;1.80;;
24787;SDS011;12883;52.662;5.196;2022-12-07T03:00:07;1.73;;;1.73;;
24787;SDS011;12883;52.662;5.196;2022-12-07T03:02:58;1.70;;;1.70;;
24787;SDS011;12883;52.662;5.196;2022-12-07T03:11:02;1.60;;;1.60;;
24787;SDS011;12883;52.662;5.196;2022-12-07T03:13:41;1.40;;;1.40;;
24787;SDS011;12883;52.662;5.196;2022-12-07T03:16:14;1.40;;;1.40;;
24787;SDS011;12883;52.662;5.196;2022-12-07T03:19:03;1.53;;;1.53;;
24787;SDS011;12883;52.662;5.196;2022-12-07T03:21:36;2.07;;;2.07;;
24787;SDS011;12883;52.662;5.196;2022-12-07T03:24:06;1.50;;;1.50;;
24787;SDS011;12883;52.662;5.196;2022-12-07T03:26:39;1.70;;;1.70;;
24787;SDS011;12883;52.662;5.196;2022-12-07T03:29:10;1.33;;;1.33;;
24787;SDS011;12883;52.662;5.196;2022-12-07T03:31:40;1.20;;;1.20;;
24787;SDS011;12883;52.662;5.196;2022-12-07T03:37:06;1.40;;;1.40;;
24787;SDS011;12883;52.662;5.196;2022-12-07T03:39:39;2.50;;;2.50;;
24787;SDS011;12883;52.662;5.196;2022-12-07T03:42:09;1.53;;;1.53;;
24787;SDS011;12883;52.662;5.196;2022-12-07T03:44:36;2.50;;;2.50;;
24787;SDS011;12883;52.662;5.196;2022-12-07T03:49:54;1.23;;;1.23;;
24787;SDS011;12883;52.662;5.196;2022-12-07T03:52:25;1.40;;;1.40;;
24787;SDS011;12883;52.662;5.196;2022-12-07T03:54:58;2.23;;;2.23;;
24787;SDS011;12883;52.662;5.196;2022-12-07T03:57:27;2.13;;;2.13;;
24787;SDS011;12883;52.662;5.196;2022-12-07T03:59:55;2.60;;;2.60;;
24787;SDS011;12883;52.662;5.196;2022-12-07T04:02:22;2.33;;;2.33;;
24787;SDS011;12883;52.662;5.196;2022-12-07T04:04:50;1.80;;;1.80;;
24787;SDS011;12883;52.662;5.196;2022-12-07T04:07:15;1.50;;;1.50;;
24787;SDS011;12883;52.662;5.196;2022-12-07T04:09:41;2.57;;;2.57;;
24787;SDS011;12883;52.662;5.196;2022-12-07T04:12:06;1.90;;;1.90;;
24787;SDS011;12883;52.662;5.196;2022-12-07T04:14:32;1.63;;;1.63;;
24787;SDS011;12883;52.662;5.196;2022-12-07T04:16:58;1.77;;;1.77;;
24787;SDS011;12883;52.662;5.196;2022-12-07T04:19:27;2.10;;;2.10;;
24787;SDS011;12883;52.662;5.196;2022-12-07T04:21:54;1.67;;;1.67;;
24787;SDS011;12883;52.662;5.196;2022-12-07T04:24:21;2.70;;;2.70;;
24787;SDS011;12883;52.662;5.196;2022-12-07T04:26:47;1.90;;;1.90;;
24787;SDS011;12883;52.662;5.196;2022-12-07T04:29:13;2.13;;;2.13;;
24787;SDS011;12883;52.662;5.196;2022-12-07T04:31:39;1.87;;;1.87;;
24787;SDS011;12883;52.662;5.196;2022-12-07T04:34:05;1.53;;;1.53;;
24787;SDS011;12883;52.662;5.196;2022-12-07T04:36:31;1.60;;;1.60;;
24787;SDS011;12883;52.662;5.196;2022-12-07T04:38:57;1.47;;;1.47;;
24787;SDS011;12883;52.662;5.196;2022-12-07T04:41:23;1.60;;;1.60;;
24787;SDS011;12883;52.662;5.196;2022-12-07T04:43:56;2.20;;;2.20;;
24787;SDS011;12883;52.662;5.196;2022-12-07T04:46:23;2.03;;;2.03;;
24787;SDS011;12883;52.662;5.196;2022-12-07T04:48:50;2.30;;;2.30;;
24787;SDS011;12883;52.662;5.196;2022-12-07T04:51:18;2.23;;;2.23;;
24787;SDS011;12883;52.662;5.196;2022-12-07T04:53:46;1.47;;;1.47;;
24787;SDS011;12883;52.662;5.196;2022-12-07T04:56:11;1.67;;;1.67;;
24787;SDS011;12883;52.662;5.196;2022-12-07T04:58:37;1.30;;;1.30;;
24787;SDS011;12883;52.662;5.196;2022-12-07T05:01:02;1.30;;;1.30;;
24787;SDS011;12883;52.662;5.196;2022-12-07T05:03:27;1.47;;;1.47;;
24787;SDS011;12883;52.662;5.196;2022-12-07T05:05:53;1.87;;;1.87;;
24787;SDS011;12883;52.662;5.196;2022-12-07T05:08:18;1.17;;;1.17;;
24787;SDS011;12883;52.662;5.196;2022-12-07T05:10:43;1.27;;;1.27;;
24787;SDS011;12883;52.662;5.196;2022-12-07T05:13:09;1.50;;;1.50;;
24787;SDS011;12883;52.662;5.196;2022-12-07T05:15:34;1.23;;;1.23;;
24787;SDS011;12883;52.662;5.196;2022-12-07T05:17:59;2.00;;;2.00;;
24787;SDS011;12883;52.662;5.196;2022-12-07T05:20:25;1.20;;;1.20;;
24787;SDS011;12883;52.662;5.196;2022-12-07T05:22:50;1.30;;;1.30;;
24787;SDS011;12883;52.662;5.196;2022-12-07T05:25:15;1.17;;;1.17;;
24787;SDS011;12883;52.662;5.196;2022-12-07T05:27:41;1.00;;;1.00;;
24787;SDS011;12883;52.662;5.196;2022-12-07T05:30:06;1.77;;;1.77;;
24787;SDS011;12883;52.662;5.196;2022-12-07T05:32:32;1.60;;;1.60;;
24787;SDS011;12883;52.662;5.196;2022-12-07T05:34:57;0.93;;;0.93;;
24787;SDS011;12883;52.662;5.196;2022-12-07T05:37:23;1.10;;;1.10;;
24787;SDS011;12883;52.662;5.196;2022-12-07T05:39:48;1.00;;;1.00;;
24787;SDS011;12883;52.662;5.196;2022-12-07T05:42:13;1.03;;;1.03;;
24787;SDS011;12883;52.662;5.196;2022-12-07T05:44:39;1.13;;;1.13;;
24787;SDS011;12883;52.662;5.196;2022-12-07T05:47:09;3.57;;;3.57;;
24787;SDS011;12883;52.662;5.196;2022-12-07T05:49:38;2.17;;;2.17;;
24787;SDS011;12883;52.662;5.196;2022-12-07T05:52:04;4.63;;;4.63;;
24787;SDS011;12883;52.662;5.196;2022-12-07T05:54:30;8.60;;;8.60;;
24787;SDS011;12883;52.662;5.196;2022-12-07T05:56:55;3.70;;;3.70;;
24787;SDS011;12883;52.662;5.196;2022-12-07T05:59:21;1.53;;;1.53;;
24787;SDS011;12883;52.662;5.196;2022-12-07T06:04:18;2.97;;;2.97;;
24787;SDS011;12883;52.662;5.196;2022-12-07T06:06:43;1.83;;;1.83;;
24787;SDS011;12883;52.662;5.196;2022-12-07T06:09:09;2.13;;;2.13;;
24787;SDS011;12883;52.662;5.196;2022-12-07T06:11:34;1.63;;;1.63;;
24787;SDS011;12883;52.662;5.196;2022-12-07T06:14:19;1.20;;;1.20;;
24787;SDS011;12883;52.662;5.196;2022-12-07T06:16:44;1.30;;;1.30;;
24787;SDS011;12883;52.662;5.196;2022-12-07T06:19:10;1.20;;;1.20;;
24787;SDS011;12883;52.662;5.196;2022-12-07T06:21:35;1.47;;;1.47;;
24787;SDS011;12883;52.662;5.196;2022-12-07T06:24:00;1.37;;;1.37;;
24787;SDS011;12883;52.662;5.196;2022-12-07T06:26:26;1.57;;;1.57;;
24787;SDS011;12883;52.662;5.196;2022-12-07T06:28:52;1.50;;;1.50;;
24787;SDS011;12883;52.662;5.196;2022-12-07T06:31:17;1.20;;;1.20;;
24787;SDS011;12883;52.662;5.196;2022-12-07T06:33:43;1.37;;;1.37;;
24787;SDS011;12883;52.662;5.196;2022-12-07T06:36:08;1.23;;;1.23;;
24787;SDS011;12883;52.662;5.196;2022-12-07T06:38:34;1.00;;;1.00;;
24787;SDS011;12883;52.662;5.196;2022-12-07T06:41:00;1.37;;;1.37;;
24787;SDS011;12883;52.662;5.196;2022-12-07T06:43:25;1.27;;;1.27;;
24787;SDS011;12883;52.662;5.196;2022-12-07T06:45:50;1.20;;;1.20;;
24787;SDS011;12883;52.662;5.196;2022-12-07T06:48:16;0.80;;;0.80;;
24787;SDS011;12883;52.662;5.196;2022-12-07T06:50:43;1.20;;;1.20;;
24787;SDS011;12883;52.662;5.196;2022-12-07T06:53:10;2.70;;;2.70;;
24787;SDS011;12883;52.662;5.196;2022-12-07T06:55:35;1.93;;;1.93;;
24787;SDS011;12883;52.662;5.196;2022-12-07T06:58:01;3.13;;;3.13;;
24787;SDS011;12883;52.662;5.196;2022-12-07T07:00:27;3.23;;;3.23;;
24787;SDS011;12883;52.662;5.196;2022-12-07T07:02:52;2.43;;;2.43;;
24787;SDS011;12883;52.662;5.196;2022-12-07T07:05:18;3.97;;;3.97;;
24787;SDS011;12883;52.662;5.196;2022-12-07T07:07:43;25.57;;;25.37;;
24787;SDS011;12883;52.662;5.196;2022-12-07T07:10:09;52.90;;;52.40;;
24787;SDS011;12883;52.662;5.196;2022-12-07T07:12:34;47.43;;;47.03;;
24787;SDS011;12883;52.662;5.196;2022-12-07T07:14:59;31.60;;;31.30;;
24787;SDS011;12883;52.662;5.196;2022-12-07T07:17:25;19.53;;;19.33;;
24787;SDS011;12883;52.662;5.196;2022-12-07T07:19:50;4.80;;;4.80;;
24787;SDS011;12883;52.662;5.196;2022-12-07T07:22:15;9.80;;;9.70;;
24787;SDS011;12883;52.662;5.196;2022-12-07T07:24:41;2.10;;;2.10;;
24787;SDS011;12883;52.662;5.196;2022-12-07T07:27:06;3.37;;;3.37;;
24787;SDS011;12883;52.662;5.196;2022-12-07T07:29:31;2.93;;;2.93;;
24787;SDS011;12883;52.662;5.196;2022-12-07T07:31:57;3.33;;;3.33;;
24787;SDS011;12883;52.662;5.196;2022-12-07T07:34:22;3.93;;;3.93;;
24787;SDS011;12883;52.662;5.196;2022-12-07T07:36:48;4.70;;;4.70;;
24787;SDS011;12883;52.662;5.196;2022-12-07T07:39:13;3.33;;;3.33;;
24787;SDS011;12883;52.662;5.196;2022-12-07T07:41:38;3.30;;;3.30;;
24787;SDS011;12883;52.662;5.196;2022-12-07T07:44:04;1.73;;;1.73;;
24787;SDS011;12883;52.662;5.196;2022-12-07T07:46:29;1.93;;;1.93;;
24787;SDS011;12883;52.662;5.196;2022-12-07T07:48:55;1.60;;;1.60;;
24787;SDS011;12883;52.662;5.196;2022-12-07T07:51:20;1.90;;;1.90;;
24787;SDS011;12883;52.662;5.196;2022-12-07T07:53:45;8.70;;;8.70;;
24787;SDS011;12883;52.662;5.196;2022-12-07T07:56:11;8.20;;;8.20;;
24787;SDS011;12883;52.662;5.196;2022-12-07T07:58:36;4.73;;;4.63;;
24787;SDS011;12883;52.662;5.196;2022-12-07T08:01:04;6.83;;;6.83;;
24787;SDS011;12883;52.662;5.196;2022-12-07T08:03:31;3.30;;;3.30;;
24787;SDS011;12883;52.662;5.196;2022-12-07T08:05:56;2.10;;;2.10;;
24787;SDS011;12883;52.662;5.196;2022-12-07T08:08:21;2.13;;;2.13;;
24787;SDS011;12883;52.662;5.196;2022-12-07T08:10:48;1.57;;;1.57;;
24787;SDS011;12883;52.662;5.196;2022-12-07T08:13:15;3.07;;;3.07;;
24787;SDS011;12883;52.662;5.196;2022-12-07T08:15:45;3.33;;;3.33;;
24787;SDS011;12883;52.662;5.196;2022-12-07T08:18:12;3.20;;;3.20;;
24787;SDS011;12883;52.662;5.196;2022-12-07T08:20:38;3.63;;;3.63;;
24787;SDS011;12883;52.662;5.196;2022-12-07T08:23:04;3.60;;;3.60;;
24787;SDS011;12883;52.662;5.196;2022-12-07T08:25:31;3.17;;;3.17;;
24787;SDS011;12883;52.662;5.196;2022-12-07T08:27:57;5.60;;;5.60;;
24787;SDS011;12883;52.662;5.196;2022-12-07T08:30:23;2.50;;;2.50;;
24787;SDS011;12883;52.662;5.196;2022-12-07T08:32:49;4.00;;;4.00;;
24787;SDS011;12883;52.662;5.196;2022-12-07T08:35:15;3.17;;;3.17;;
24787;SDS011;12883;52.662;5.196;2022-12-07T08:37:41;2.33;;;2.33;;
24787;SDS011;12883;52.662;5.196;2022-12-07T08:40:07;2.50;;;2.50;;
24787;SDS011;12883;52.662;5.196;2022-12-07T08:42:34;3.33;;;3.33;;
24787;SDS011;12883;52.662;5.196;2022-12-07T08:45:06;2.57;;;2.57;;
24787;SDS011;12883;52.662;5.196;2022-12-07T08:47:34;1.83;;;1.83;;
24787;SDS011;12883;52.662;5.196;2022-12-07T08:50:02;2.37;;;2.37;;
24787;SDS011;12883;52.662;5.196;2022-12-07T08:52:32;2.83;;;2.83;;
24787;SDS011;12883;52.662;5.196;2022-12-07T08:54:59;2.63;;;2.63;;
24787;SDS011;12883;52.662;5.196;2022-12-07T08:57:26;4.43;;;4.43;;
24787;SDS011;12883;52.662;5.196;2022-12-07T08:59:53;6.53;;;6.53;;
24787;SDS011;12883;52.662;5.196;2022-12-07T09:02:18;9.30;;;9.20;;
24787;SDS011;12883;52.662;5.196;2022-12-07T09:04:44;7.17;;;7.13;;
24787;SDS011;12883;52.662;5.196;2022-12-07T09:07:09;3.70;;;3.70;;
24787;SDS011;12883;52.662;5.196;2022-12-07T09:09:35;2.47;;;2.47;;
24787;SDS011;12883;52.662;5.196;2022-12-07T09:12:00;2.73;;;2.73;;
24787;SDS011;12883;52.662;5.196;2022-12-07T09:14:25;2.90;;;2.90;;
24787;SDS011;12883;52.662;5.196;2022-12-07T09:16:51;2.60;;;2.60;;
24787;SDS011;12883;52.662;5.196;2022-12-07T09:19:16;2.57;;;2.57;;
24787;SDS011;12883;52.662;5.196;2022-12-07T09:21:42;2.20;;;2.20;;
24787;SDS011;12883;52.662;5.196;2022-12-07T09:24:07;2.07;;;2.07;;
24787;SDS011;12883;52.662;5.196;2022-12-07T09:26:34;2.20;;;2.20;;
24787;SDS011;12883;52.662;5.196;2022-12-07T09:29:00;2.57;;;2.57;;
24787;SDS011;12883;52.662;5.196;2022-12-07T09:31:27;3.00;;;3.00;;
24787;SDS011;12883;52.662;5.196;2022-12-07T09:33:56;2.10;;;2.10;;
24787;SDS011;12883;52.662;5.196;2022-12-07T09:36:22;4.90;;;4.90;;
24787;SDS011;12883;52.662;5.196;2022-12-07T09:38:48;2.50;;;2.50;;
24787;SDS011;12883;52.662;5.196;2022-12-07T09:41:13;2.40;;;2.40;;
24787;SDS011;12883;52.662;5.196;2022-12-07T09:43:40;2.60;;;2.60;;
24787;SDS011;12883;52.662;5.196;2022-12-07T09:46:08;2.90;;;2.90;;
24787;SDS011;12883;52.662;5.196;2022-12-07T09:48:39;2.50;;;2.50;;
24787;SDS011;12883;52.662;5.196;2022-12-07T09:53:39;3.10;;;3.10;;
24787;SDS011;12883;52.662;5.196;2022-12-07T09:56:08;3.17;;;3.17;;
24787;SDS011;12883;52.662;5.196;2022-12-07T09:58:37;2.90;;;2.90;;
24787;SDS011;12883;52.662;5.196;2022-12-07T10:03:37;3.70;;;3.70;;
24787;SDS011;12883;52.662;5.196;2022-12-07T10:06:05;3.67;;;3.67;;
24787;SDS011;12883;52.662;5.196;2022-12-07T10:08:31;3.30;;;3.30;;
24787;SDS011;12883;52.662;5.196;2022-12-07T10:10:57;3.07;;;3.07;;
24787;SDS011;12883;52.662;5.196;2022-12-07T10:13:36;2.77;;;2.77;;
24787;SDS011;12883;52.662;5.196;2022-12-07T10:16:04;2.40;;;2.40;;
24787;SDS011;12883;52.662;5.196;2022-12-07T10:23:32;2.23;;;2.23;;
24787;SDS011;12883;52.662;5.196;2022-12-07T10:25:58;2.33;;;2.33;;
24787;SDS011;12883;52.662;5.196;2022-12-07T10:28:27;2.63;;;2.63;;
24787;SDS011;12883;52.662;5.196;2022-12-07T10:31:02;1.97;;;1.97;;
24787;SDS011;12883;52.662;5.196;2022-12-07T10:33:50;2.40;;;2.40;;
24787;SDS011;12883;52.662;5.196;2022-12-07T10:38:50;2.10;;;2.10;;
24787;SDS011;12883;52.662;5.196;2022-12-07T10:41:17;2.27;;;2.27;;
24787;SDS011;12883;52.662;5.196;2022-12-07T10:43:47;2.27;;;2.27;;
24787;SDS011;12883;52.662;5.196;2022-12-07T10:54:12;1.67;;;1.67;;
24787;SDS011;12883;52.662;5.196;2022-12-07T10:59:38;1.03;;;1.03;;
24787;SDS011;12883;52.662;5.196;2022-12-07T11:02:22;1.93;;;1.93;;
24787;SDS011;12883;52.662;5.196;2022-12-07T11:04:59;2.23;;;2.23;;
24787;SDS011;12883;52.662;5.196;2022-12-07T11:07:43;2.17;;;2.17;;
24787;SDS011;12883;52.662;5.196;2022-12-07T11:10:38;2.30;;;2.30;;
24787;SDS011;12883;52.662;5.196;2022-12-07T11:15:54;1.83;;;1.83;;
24787;SDS011;12883;52.662;5.196;2022-12-07T11:18:29;2.10;;;2.10;;
24787;SDS011;12883;52.662;5.196;2022-12-07T11:21:14;3.00;;;3.00;;
24787;SDS011;12883;52.662;5.196;2022-12-07T11:23:52;2.07;;;2.07;;
24787;SDS011;12883;52.662;5.196;2022-12-07T11:31:37;1.70;;;1.70;;
24787;SDS011;12883;52.662;5.196;2022-12-07T11:34:27;1.60;;;1.60;;
24787;SDS011;12883;52.662;5.196;2022-12-07T11:37:16;1.33;;;1.33;;
24787;SDS011;12883;52.662;5.196;2022-12-07T11:39:49;1.57;;;1.57;;
24787;SDS011;12883;52.662;5.196;2022-12-07T11:45:15;1.40;;;1.40;;
24787;SDS011;12883;52.662;5.196;2022-12-07T11:47:53;1.03;;;1.03;;
24787;SDS011;12883;52.662;5.196;2022-12-07T11:55:50;1.17;;;1.17;;
24787;SDS011;12883;52.662;5.196;2022-12-07T12:06:40;1.23;;;1.23;;
24787;SDS011;12883;52.662;5.196;2022-12-07T12:12:12;0.90;;;0.90;;
24787;SDS011;12883;52.662;5.196;2022-12-07T12:23:58;0.97;;;0.97;;
24787;SDS011;12883;52.662;5.196;2022-12-07T12:26:29;1.10;;;1.10;;
24787;SDS011;12883;52.662;5.196;2022-12-07T12:28:58;1.47;;;1.47;;
24787;SDS011;12883;52.662;5.196;2022-12-07T12:31:34;1.00;;;1.00;;
24787;SDS011;12883;52.662;5.196;2022-12-07T12:34:10;0.70;;;0.70;;
24787;SDS011;12883;52.662;5.196;2022-12-07T12:47:53;1.63;;;1.63;;
24787;SDS011;12883;52.662;5.196;2022-12-07T12:50:35;2.00;;;2.00;;
24787;SDS011;12883;52.662;5.196;2022-12-07T12:53:12;3.17;;;3.17;;
24787;SDS011;12883;52.662;5.196;2022-12-07T13:00:43;1.17;;;1.17;;
24787;SDS011;12883;52.662;5.196;2022-12-07T13:03:26;1.40;;;1.40;;
24787;SDS011;12883;52.662;5.196;2022-12-07T13:08:44;1.60;;;1.60;;
24787;SDS011;12883;52.662;5.196;2022-12-07T13:17:00;1.13;;;1.13;;
24787;SDS011;12883;52.662;5.196;2022-12-07T13:22:27;1.07;;;1.07;;
24787;SDS011;12883;52.662;5.196;2022-12-07T13:27:54;1.10;;;1.10;;
24787;SDS011;12883;52.662;5.196;2022-12-07T13:30:40;0.90;;;0.90;;
24787;SDS011;12883;52.662;5.196;2022-12-07T13:33:12;1.03;;;1.03;;
24787;SDS011;12883;52.662;5.196;2022-12-07T13:35:39;1.00;;;1.00;;
24787;SDS011;12883;52.662;5.196;2022-12-07T13:38:05;1.30;;;1.30;;
24787;SDS011;12883;52.662;5.196;2022-12-07T13:40:39;1.87;;;1.87;;
24787;SDS011;12883;52.662;5.196;2022-12-07T13:43:05;1.00;;;1.00;;
24787;SDS011;12883;52.662;5.196;2022-12-07T13:45:39;1.00;;;1.00;;
24787;SDS011;12883;52.662;5.196;2022-12-07T13:48:21;1.93;;;1.93;;
24787;SDS011;12883;52.662;5.196;2022-12-07T13:50:56;1.00;;;1.00;;
24787;SDS011;12883;52.662;5.196;2022-12-07T13:53:23;1.53;;;1.53;;
24787;SDS011;12883;52.662;5.196;2022-12-07T13:55:49;1.40;;;1.40;;
24787;SDS011;12883;52.662;5.196;2022-12-07T13:58:15;1.20;;;1.20;;
24787;SDS011;12883;52.662;5.196;2022-12-07T14:00:41;2.93;;;2.93;;
24787;SDS011;12883;52.662;5.196;2022-12-07T14:05:39;1.40;;;1.40;;
24787;SDS011;12883;52.662;5.196;2022-12-07T14:13:31;1.80;;;1.80;;
24787;SDS011;12883;52.662;5.196;2022-12-07T14:16:05;1.00;;;1.00;;
24787;SDS011;12883;52.662;5.196;2022-12-07T14:18:41;1.57;;;1.57;;
24787;SDS011;12883;52.662;5.196;2022-12-07T14:23:35;1.30;;;1.30;;
24787;SDS011;12883;52.662;5.196;2022-12-07T14:26:06;2.17;;;2.17;;
24787;SDS011;12883;52.662;5.196;2022-12-07T14:28:36;2.20;;;2.20;;
24787;SDS011;12883;52.662;5.196;2022-12-07T14:31:02;2.47;;;2.47;;
24787;SDS011;12883;52.662;5.196;2022-12-07T14:33:32;2.20;;;2.20;;
24787;SDS011;12883;52.662;5.196;2022-12-07T14:35:57;2.77;;;2.77;;
24787;SDS011;12883;52.662;5.196;2022-12-07T14:38:23;4.57;;;4.57;;
24787;SDS011;12883;52.662;5.196;2022-12-07T14:40:50;4.03;;;4.03;;
24787;SDS011;12883;52.662;5.196;2022-12-07T14:43:17;2.10;;;2.10;;
24787;SDS011;12883;52.662;5.196;2022-12-07T14:45:43;1.60;;;1.60;;
24787;SDS011;12883;52.662;5.196;2022-12-07T14:48:12;1.30;;;1.30;;
24787;SDS011;12883;52.662;5.196;2022-12-07T14:50:45;1.97;;;1.97;;
24787;SDS011;12883;52.662;5.196;2022-12-07T14:53:16;1.00;;;1.00;;
24787;SDS011;12883;52.662;5.196;2022-12-07T14:55:43;1.47;;;1.47;;
24787;SDS011;12883;52.662;5.196;2022-12-07T14:58:15;1.13;;;1.13;;
24787;SDS011;12883;52.662;5.196;2022-12-07T15:00:41;1.47;;;1.47;;
24787;SDS011;12883;52.662;5.196;2022-12-07T15:03:07;0.93;;;0.93;;
24787;SDS011;12883;52.662;5.196;2022-12-07T15:05:33;0.87;;;0.87;;
24787;SDS011;12883;52.662;5.196;2022-12-07T15:07:59;1.00;;;1.00;;
24787;SDS011;12883;52.662;5.196;2022-12-07T15:10:25;1.10;;;1.10;;
24787;SDS011;12883;52.662;5.196;2022-12-07T15:12:55;1.40;;;1.40;;
24787;SDS011;12883;52.662;5.196;2022-12-07T15:15:40;1.13;;;1.13;;
24787;SDS011;12883;52.662;5.196;2022-12-07T15:18:06;1.63;;;1.63;;
24787;SDS011;12883;52.662;5.196;2022-12-07T15:20:31;1.57;;;1.57;;
24787;SDS011;12883;52.662;5.196;2022-12-07T15:22:57;1.40;;;1.40;;
24787;SDS011;12883;52.662;5.196;2022-12-07T15:25:22;0.70;;;0.70;;
24787;SDS011;12883;52.662;5.196;2022-12-07T15:27:47;1.00;;;1.00;;
24787;SDS011;12883;52.662;5.196;2022-12-07T15:30:13;1.10;;;1.10;;
24787;SDS011;12883;52.662;5.196;2022-12-07T15:32:38;1.10;;;1.10;;
24787;SDS011;12883;52.662;5.196;2022-12-07T15:35:03;1.00;;;1.00;;
24787;SDS011;12883;52.662;5.196;2022-12-07T15:37:29;2.33;;;2.33;;
24787;SDS011;12883;52.662;5.196;2022-12-07T15:39:54;1.40;;;1.40;;
24787;SDS011;12883;52.662;5.196;2022-12-07T15:42:20;5.37;;;5.37;;
24787;SDS011;12883;52.662;5.196;2022-12-07T15:44:45;5.50;;;5.50;;
24787;SDS011;12883;52.662;5.196;2022-12-07T15:47:29;4.33;;;4.33;;
24787;SDS011;12883;52.662;5.196;2022-12-07T15:49:55;3.00;;;3.00;;
24787;SDS011;12883;52.662;5.196;2022-12-07T15:52:21;5.07;;;5.07;;
24787;SDS011;12883;52.662;5.196;2022-12-07T15:54:46;8.77;;;8.77;;
24787;SDS011;12883;52.662;5.196;2022-12-07T15:57:12;7.93;;;7.93;;
24787;SDS011;12883;52.662;5.196;2022-12-07T15:59:38;8.20;;;8.20;;
24787;SDS011;12883;52.662;5.196;2022-12-07T16:02:03;3.93;;;3.93;;
24787;SDS011;12883;52.662;5.196;2022-12-07T16:04:29;0.93;;;0.93;;
24787;SDS011;12883;52.662;5.196;2022-12-07T16:06:55;1.27;;;1.27;;
24787;SDS011;12883;52.662;5.196;2022-12-07T16:09:20;2.30;;;2.30;;
24787;SDS011;12883;52.662;5.196;2022-12-07T16:11:46;0.87;;;0.87;;
24787;SDS011;12883;52.662;5.196;2022-12-07T16:14:11;1.63;;;1.63;;
24787;SDS011;12883;52.662;5.196;2022-12-07T16:16:37;1.43;;;1.43;;
24787;SDS011;12883;52.662;5.196;2022-12-07T16:19:05;2.07;;;2.07;;
24787;SDS011;12883;52.662;5.196;2022-12-07T16:21:30;3.80;;;3.80;;
24787;SDS011;12883;52.662;5.196;2022-12-07T16:23:57;3.63;;;3.63;;
24787;SDS011;12883;52.662;5.196;2022-12-07T16:26:23;3.90;;;3.90;;
24787;SDS011;12883;52.662;5.196;2022-12-07T16:28:49;10.30;;;10.30;;
24787;SDS011;12883;52.662;5.196;2022-12-07T16:31:17;10.33;;;10.33;;
24787;SDS011;12883;52.662;5.196;2022-12-07T16:33:43;6.70;;;6.70;;
24787;SDS011;12883;52.662;5.196;2022-12-07T16:36:09;6.63;;;6.63;;
24787;SDS011;12883;52.662;5.196;2022-12-07T16:38:36;8.90;;;8.90;;
24787;SDS011;12883;52.662;5.196;2022-12-07T16:41:02;11.20;;;11.20;;
24787;SDS011;12883;52.662;5.196;2022-12-07T16:43:29;7.70;;;7.70;;
24787;SDS011;12883;52.662;5.196;2022-12-07T16:45:54;4.60;;;4.60;;
24787;SDS011;12883;52.662;5.196;2022-12-07T16:48:20;2.43;;;2.43;;
24787;SDS011;12883;52.662;5.196;2022-12-07T16:50:46;2.10;;;2.10;;
24787;SDS011;12883;52.662;5.196;2022-12-07T16:53:12;2.00;;;2.00;;
24787;SDS011;12883;52.662;5.196;2022-12-07T16:55:39;3.30;;;3.30;;
24787;SDS011;12883;52.662;5.196;2022-12-07T16:58:06;5.40;;;5.40;;
24787;SDS011;12883;52.662;5.196;2022-12-07T17:00:32;5.13;;;5.13;;
24787;SDS011;12883;52.662;5.196;2022-12-07T17:02:58;2.10;;;2.10;;